createdAt,value
2019-02-15T00:01:37.533Z,1.16
2019-02-15T00:04:06.660Z,1.15
2019-02-15T00:06:35.427Z,1.19
2019-02-15T00:09:05.875Z,1.15
2019-02-15T00:11:34.767Z,1.10
2019-02-15T00:14:03.647Z,1.22
2019-02-15T00:16:33.165Z,1.21
2019-02-15T00:19:07.347Z,1.19
2019-02-15T00:21:42.834Z,1.20
2019-02-15T00:24:11.791Z,1.20
2019-02-15T00:26:41.434Z,1.28
2019-02-15T00:29:10.711Z,1.18
2019-02-15T00:31:39.831Z,1.14
2019-02-15T00:34:09.212Z,1.14
2019-02-15T00:36:38.324Z,1.19
2019-02-15T00:39:07.883Z,1.15
2019-02-15T00:41:37.643Z,1.12
2019-02-15T00:44:07.238Z,0.98
2019-02-15T00:46:43.696Z,1.03
2019-02-15T00:49:18.376Z,0.93
2019-02-15T00:51:52.428Z,0.85
2019-02-15T00:54:32.693Z,0.93
2019-02-15T00:57:06.704Z,0.93
2019-02-15T01:00:41.640Z,0.79
2019-02-15T01:03:31.523Z,0.68
2019-02-15T01:06:08.555Z,0.60
2019-02-15T01:08:59.527Z,0.62
2019-02-15T01:11:32.302Z,0.63
2019-02-15T01:14:01.168Z,0.58
2019-02-15T01:16:30.584Z,0.55
2019-02-15T01:18:59.583Z,0.51
2019-02-15T01:21:28.588Z,0.58
2019-02-15T01:23:57.475Z,0.48
2019-02-15T01:26:35.651Z,0.42
2019-02-15T01:29:12.020Z,0.46
2019-02-15T01:31:47.281Z,0.56
2019-02-15T01:34:24.336Z,0.58
2019-02-15T01:37:01.360Z,0.46
2019-02-15T01:39:51.300Z,0.46
2019-02-15T01:44:28.174Z,0.46
2019-02-15T01:47:04.042Z,0.51
2019-02-15T01:49:33.777Z,0.49
2019-02-15T01:52:02.947Z,0.49
2019-02-15T01:54:32.003Z,0.57
2019-02-15T01:57:01.594Z,0.48
2019-02-15T01:59:31.334Z,0.50
2019-02-15T02:02:00.421Z,0.53
2019-02-15T02:04:29.539Z,0.68
2019-02-15T02:06:58.411Z,0.54
2019-02-15T02:09:27.377Z,0.50
2019-02-15T02:11:56.614Z,0.52
2019-02-15T02:14:25.692Z,0.51
2019-02-15T02:16:55.062Z,0.55
2019-02-15T02:19:24.189Z,0.50
2019-02-15T02:21:53.183Z,0.46
2019-02-15T02:24:22.157Z,0.45
2019-02-15T02:26:52.404Z,0.49
2019-02-15T02:29:21.481Z,0.51
2019-02-15T02:31:50.291Z,0.49
2019-02-15T02:34:20.048Z,0.50
2019-02-15T02:36:51.984Z,0.46
2019-02-15T02:39:20.878Z,0.49
2019-02-15T02:41:50.392Z,0.50
2019-02-15T02:44:20.378Z,0.55
2019-02-15T02:46:49.361Z,0.64
2019-02-15T02:49:19.723Z,0.63
2019-02-15T02:51:49.176Z,0.70
2019-02-15T02:54:18.189Z,0.76
2019-02-15T02:56:48.171Z,0.75
2019-02-15T02:59:17.884Z,0.74
2019-02-15T03:01:46.923Z,0.81
2019-02-15T03:04:15.831Z,0.87
2019-02-15T03:06:45.182Z,0.89
2019-02-15T03:09:14.631Z,0.90
2019-02-15T03:11:43.525Z,0.73
2019-02-15T03:14:12.399Z,0.59
2019-02-15T03:16:41.976Z,0.61
2019-02-15T03:19:10.831Z,0.61
2019-02-15T03:21:40.273Z,0.61
2019-02-15T03:24:09.701Z,0.67
2019-02-15T03:26:39.190Z,0.59
2019-02-15T03:29:07.967Z,0.65
2019-02-15T03:31:36.890Z,0.67
2019-02-15T03:34:05.930Z,0.60
2019-02-15T03:36:40.016Z,0.65
2019-02-15T03:39:16.143Z,0.69
2019-02-15T03:41:45.204Z,0.70
2019-02-15T03:44:21.653Z,0.79
2019-02-15T03:46:43.145Z,0.77
2019-02-15T03:49:12.646Z,0.73
2019-02-15T03:51:41.620Z,0.71
2019-02-15T03:54:10.571Z,0.69
2019-02-15T03:56:39.546Z,0.67
2019-02-15T03:59:08.666Z,0.68
2019-02-15T04:01:37.866Z,0.69
2019-02-15T04:04:06.699Z,0.71
2019-02-15T04:06:36.199Z,0.67
2019-02-15T04:09:05.865Z,0.77
2019-02-15T04:11:34.707Z,0.76
2019-02-15T04:14:04.012Z,0.68
2019-02-15T04:16:33.632Z,0.75
2019-02-15T04:19:02.707Z,0.74
2019-02-15T04:21:32.296Z,0.65
2019-02-15T04:24:02.197Z,0.63
2019-02-15T04:26:30.995Z,0.66
2019-02-15T04:29:00.015Z,0.64
2019-02-15T04:31:28.845Z,0.71
2019-02-15T04:33:57.692Z,0.69
2019-02-15T04:36:26.496Z,0.64
2019-02-15T04:38:55.987Z,0.43
2019-02-15T04:41:24.971Z,0.51
2019-02-15T04:43:54.636Z,0.55
2019-02-15T04:46:23.686Z,0.63
2019-02-15T04:48:52.490Z,0.63
2019-02-15T04:51:21.981Z,0.67
2019-02-15T04:53:51.394Z,0.75
2019-02-15T04:56:20.481Z,0.75
2019-02-15T04:58:49.474Z,0.71
2019-02-15T05:01:18.509Z,0.58
2019-02-15T05:03:47.592Z,0.66
2019-02-15T05:06:16.446Z,0.59
2019-02-15T05:08:45.470Z,0.41
2019-02-15T05:11:14.993Z,0.45
2019-02-15T05:13:43.989Z,0.53
2019-02-15T05:16:12.952Z,0.59
2019-02-15T05:18:42.441Z,0.65
2019-02-15T05:21:12.857Z,0.64
2019-02-15T05:23:41.636Z,0.65
2019-02-15T05:26:10.827Z,0.69
2019-02-15T05:28:39.902Z,0.69
2019-02-15T05:31:09.579Z,0.85
2019-02-15T05:33:38.456Z,0.71
2019-02-15T05:36:08.140Z,0.78
2019-02-15T05:38:38.054Z,0.71
2019-02-15T05:41:06.869Z,0.71
2019-02-15T05:43:35.955Z,0.71
2019-02-15T05:46:05.992Z,0.67
2019-02-15T05:48:34.976Z,0.71
2019-02-15T05:51:05.167Z,0.75
2019-02-15T05:53:34.225Z,0.68
2019-02-15T05:56:03.674Z,0.74
2019-02-15T05:58:32.723Z,0.68
2019-02-15T06:01:02.394Z,0.60
2019-02-15T06:03:31.814Z,0.67
2019-02-15T06:06:00.780Z,0.52
2019-02-15T06:08:31.329Z,0.55
2019-02-15T06:11:06.459Z,0.44
2019-02-15T06:13:28.083Z,0.40
2019-02-15T06:15:57.395Z,0.44
2019-02-15T06:18:26.519Z,0.56
2019-02-15T06:20:55.629Z,0.58
2019-02-15T06:23:24.596Z,0.63
2019-02-15T06:25:53.606Z,0.71
2019-02-15T06:28:22.682Z,0.76
2019-02-15T06:30:51.637Z,0.73
2019-02-15T06:33:20.658Z,0.67
2019-02-15T06:35:49.944Z,0.70
2019-02-15T06:38:18.970Z,0.78
2019-02-15T06:40:48.586Z,0.94
2019-02-15T06:43:18.574Z,0.78
2019-02-15T06:45:47.604Z,0.74
2019-02-15T06:48:16.612Z,0.79
2019-02-15T06:50:45.655Z,0.83
2019-02-15T06:53:14.762Z,0.80
2019-02-15T06:55:43.791Z,0.85
2019-02-15T06:58:13.929Z,0.93
2019-02-15T07:00:47.105Z,0.95
2019-02-15T07:03:23.716Z,1.00
2019-02-15T07:05:52.656Z,1.02
2019-02-15T07:08:22.435Z,1.02
2019-02-15T07:10:51.588Z,1.12
2019-02-15T07:13:21.288Z,1.25
2019-02-15T07:15:50.268Z,1.07
2019-02-15T07:18:19.088Z,1.04
2019-02-15T07:20:49.749Z,1.04
2019-02-15T07:23:18.853Z,1.16
2019-02-15T07:25:47.864Z,1.15
2019-02-15T07:28:16.861Z,1.23
2019-02-15T07:30:46.176Z,1.10
2019-02-15T07:33:15.189Z,1.22
2019-02-15T07:35:44.848Z,1.20
2019-02-15T07:38:14.370Z,1.06
2019-02-15T07:40:43.343Z,1.13
2019-02-15T07:43:12.992Z,1.18
2019-02-15T07:45:43.053Z,1.13
2019-02-15T07:48:11.267Z,1.03
2019-02-15T07:50:40.278Z,1.15
2019-02-15T07:53:09.520Z,1.33
2019-02-15T07:55:38.532Z,1.39
2019-02-15T07:58:07.549Z,1.53
2019-02-15T08:00:37.190Z,1.55
2019-02-15T08:03:06.263Z,1.50
2019-02-15T08:05:35.877Z,1.58
2019-02-15T08:08:05.258Z,1.61
2019-02-15T08:10:34.266Z,1.60
2019-02-15T08:13:03.253Z,1.62
2019-02-15T08:15:36.235Z,1.74
2019-02-15T08:18:02.357Z,1.86
2019-02-15T08:20:32.132Z,1.88
2019-02-15T08:23:00.990Z,1.76
2019-02-15T08:25:30.283Z,1.77
2019-02-15T08:28:00.258Z,1.72
2019-02-15T08:30:30.375Z,1.80
2019-02-15T08:32:59.443Z,1.73
2019-02-15T08:35:28.511Z,1.80
2019-02-15T08:37:58.916Z,1.96
2019-02-15T08:40:27.593Z,1.90
2019-02-15T08:42:58.272Z,1.92
2019-02-15T08:45:27.415Z,1.97
2019-02-15T08:47:56.954Z,2.13
2019-02-15T08:50:26.137Z,2.18
2019-02-15T08:52:56.169Z,2.22
2019-02-15T08:55:25.461Z,2.20
2019-02-15T08:57:55.199Z,2.17
2019-02-15T09:00:24.348Z,2.14
2019-02-15T09:02:53.391Z,1.92
2019-02-15T09:05:22.587Z,1.91
2019-02-15T09:07:52.312Z,1.99
2019-02-15T09:10:21.384Z,2.03
2019-02-15T09:12:52.321Z,1.92
2019-02-15T09:15:21.967Z,1.68
2019-02-15T09:17:50.938Z,1.88
2019-02-15T09:20:20.265Z,1.86
2019-02-15T09:22:49.435Z,1.94
2019-02-15T09:25:18.529Z,1.69
2019-02-15T09:27:54.515Z,1.49
2019-02-15T09:30:23.599Z,1.69
2019-02-15T09:32:53.024Z,1.85
2019-02-15T09:35:22.016Z,1.98
2019-02-15T09:37:50.852Z,2.07
2019-02-15T09:40:20.246Z,2.06
2019-02-15T09:42:49.792Z,2.12
2019-02-15T09:45:18.652Z,2.17
2019-02-15T09:47:48.103Z,2.22
2019-02-15T09:50:17.896Z,2.26
2019-02-15T09:52:48.291Z,2.16
2019-02-15T09:55:17.079Z,2.18
2019-02-15T09:57:45.735Z,2.04
2019-02-15T10:00:15.730Z,2.00
2019-02-15T10:02:45.044Z,2.04
2019-02-15T10:05:13.951Z,2.06
2019-02-15T10:07:43.590Z,2.09
2019-02-15T10:10:12.583Z,2.24
2019-02-15T10:12:42.524Z,2.26
2019-02-15T10:15:11.643Z,2.27
2019-02-15T10:17:40.600Z,2.22
2019-02-15T10:20:10.272Z,2.23
2019-02-15T10:22:39.291Z,2.33
2019-02-15T10:25:09.156Z,2.53
2019-02-15T10:27:38.428Z,2.51
2019-02-15T10:30:08.185Z,2.37
2019-02-15T10:32:37.736Z,2.42
2019-02-15T10:35:07.658Z,2.47
2019-02-15T10:37:36.757Z,2.34
2019-02-15T10:40:06.453Z,2.18
2019-02-15T10:42:35.868Z,2.09
2019-02-15T10:45:05.227Z,2.00
2019-02-15T10:47:34.277Z,1.88
2019-02-15T10:50:05.097Z,1.64
2019-02-15T10:52:32.801Z,1.55
2019-02-15T10:55:02.245Z,1.56
2019-02-15T10:57:31.683Z,1.58
2019-02-15T11:00:00.859Z,1.53
2019-02-15T11:02:29.917Z,1.56
2019-02-15T11:04:58.762Z,1.71
2019-02-15T11:07:27.540Z,1.66
2019-02-15T11:09:57.104Z,1.61
2019-02-15T11:12:26.097Z,1.74
2019-02-15T11:14:55.174Z,1.89
2019-02-15T11:17:24.195Z,1.83
2019-02-15T11:19:53.612Z,1.84
2019-02-15T11:22:23.503Z,2.01
2019-02-15T11:24:53.579Z,1.96
2019-02-15T11:27:23.168Z,1.89
2019-02-15T11:29:51.892Z,2.11
2019-02-15T11:32:21.479Z,2.19
2019-02-15T11:34:50.811Z,2.17
2019-02-15T11:37:19.847Z,2.14
2019-02-15T11:39:49.110Z,2.15
2019-02-15T11:42:18.792Z,2.08
2019-02-15T11:44:47.433Z,2.01
2019-02-15T11:47:16.216Z,2.09
2019-02-15T11:49:45.428Z,2.08
2019-02-15T11:52:15.121Z,1.98
2019-02-15T11:54:44.849Z,1.88
2019-02-15T11:57:13.895Z,1.78
2019-02-15T11:59:43.920Z,1.79
2019-02-15T12:02:12.969Z,1.94
2019-02-15T12:04:41.787Z,1.96
2019-02-15T12:07:11.165Z,2.00
2019-02-15T12:09:40.284Z,2.04
2019-02-15T12:12:10.971Z,2.05
2019-02-15T12:14:38.956Z,2.09
2019-02-15T12:17:08.149Z,2.11
2019-02-15T12:19:38.574Z,1.92
2019-02-15T12:22:08.296Z,1.94
2019-02-15T12:24:38.422Z,2.02
2019-02-15T12:27:08.092Z,1.96
2019-02-15T12:29:37.015Z,1.93
2019-02-15T12:32:07.017Z,1.92
2019-02-15T12:34:36.943Z,1.81
2019-02-15T12:37:06.256Z,1.88
2019-02-15T12:39:35.788Z,1.82
2019-02-15T12:42:04.677Z,1.85
2019-02-15T12:44:33.519Z,1.93
2019-02-15T12:47:02.470Z,1.98
2019-02-15T12:49:31.523Z,1.88
2019-02-15T12:52:00.536Z,1.93
2019-02-15T12:54:29.757Z,2.03
2019-02-15T12:56:58.754Z,2.06
2019-02-15T12:59:27.851Z,2.18
2019-02-15T13:01:57.275Z,2.18
2019-02-15T13:04:26.106Z,2.05
2019-02-15T13:06:55.093Z,1.92
2019-02-15T13:09:24.346Z,1.97
2019-02-15T13:11:53.086Z,2.06
2019-02-15T13:14:21.949Z,2.18
2019-02-15T13:16:50.892Z,2.27
2019-02-15T13:19:19.865Z,2.36
2019-02-15T13:21:48.747Z,2.35
2019-02-15T13:24:17.687Z,2.23
2019-02-15T13:26:46.788Z,2.16
2019-02-15T13:29:16.284Z,2.18
2019-02-15T13:31:45.371Z,2.30
2019-02-15T13:34:14.433Z,2.29
2019-02-15T13:36:43.215Z,2.22
2019-02-15T13:39:12.580Z,2.22
2019-02-15T13:41:41.632Z,2.24
2019-02-15T13:44:11.174Z,2.38
2019-02-15T13:46:40.451Z,2.28
2019-02-15T13:49:09.418Z,2.18
2019-02-15T13:51:38.576Z,2.11
2019-02-15T13:54:07.932Z,2.15
2019-02-15T13:56:36.818Z,1.95
2019-02-15T13:59:05.814Z,1.84
2019-02-15T14:01:34.833Z,1.67
2019-02-15T14:04:04.308Z,1.60
2019-02-15T14:06:33.132Z,1.69
2019-02-15T14:09:02.239Z,1.65
2019-02-15T14:11:31.913Z,1.61
2019-02-15T14:14:01.817Z,1.63
2019-02-15T14:16:31.018Z,1.53
2019-02-15T14:18:59.915Z,1.56
2019-02-15T14:21:28.812Z,1.39
2019-02-15T14:23:58.009Z,1.71
2019-02-15T14:26:27.104Z,1.76
2019-02-15T14:28:56.251Z,1.88
2019-02-15T14:31:26.082Z,1.87
2019-02-15T14:33:55.108Z,1.99
2019-02-15T14:36:24.112Z,2.12
2019-02-15T14:38:53.253Z,2.12
2019-02-15T14:41:22.286Z,2.01
2019-02-15T14:43:51.084Z,1.90
2019-02-15T14:46:21.007Z,1.80
2019-02-15T14:48:50.097Z,1.82
2019-02-15T14:51:20.897Z,1.81
2019-02-15T14:53:50.174Z,1.78
2019-02-15T14:56:19.331Z,1.79
2019-02-15T14:58:48.437Z,1.75
2019-02-15T15:01:17.302Z,1.72
2019-02-15T15:03:46.663Z,1.74
2019-02-15T15:06:15.929Z,1.78
2019-02-15T15:08:44.936Z,1.92
2019-02-15T15:11:14.572Z,1.78
2019-02-15T15:13:43.415Z,1.72
2019-02-15T15:16:13.025Z,1.89
2019-02-15T15:18:42.862Z,1.93
2019-02-15T15:21:12.637Z,1.89
2019-02-15T15:23:41.787Z,1.86
2019-02-15T15:26:12.262Z,1.72
2019-02-15T15:28:40.482Z,1.77
2019-02-15T15:31:11.343Z,1.74
2019-02-15T15:33:38.851Z,4.16
2019-02-15T15:36:09.193Z,5.83
2019-02-15T15:38:38.425Z,7.70
2019-02-15T15:41:07.587Z,7.86
2019-02-15T15:43:36.462Z,9.05
2019-02-15T15:46:05.664Z,8.94
2019-02-15T15:48:34.661Z,13.00
2019-02-15T15:51:03.779Z,10.29
2019-02-15T15:53:32.752Z,8.43
2019-02-15T15:56:01.933Z,7.87
2019-02-15T15:58:30.994Z,7.98
2019-02-15T16:01:00.628Z,8.04
2019-02-15T16:03:29.738Z,8.15
2019-02-15T16:06:00.321Z,9.44
2019-02-15T16:08:28.436Z,10.70
2019-02-15T16:10:57.615Z,8.89
2019-02-15T16:13:27.496Z,7.77
2019-02-15T16:15:56.970Z,7.60
2019-02-15T16:18:32.246Z,6.60
2019-02-15T16:20:55.133Z,8.99
2019-02-15T16:23:24.564Z,9.12
2019-02-15T16:25:53.835Z,8.89
2019-02-15T16:28:22.920Z,8.62
2019-02-15T16:30:51.855Z,8.03
2019-02-15T16:33:21.941Z,8.06
2019-02-15T16:35:51.032Z,7.97
2019-02-15T16:38:19.977Z,8.21
2019-02-15T16:40:49.047Z,8.71
2019-02-15T16:43:18.181Z,8.24
2019-02-15T16:45:48.574Z,8.71
2019-02-15T16:48:17.749Z,8.56
2019-02-15T16:50:46.767Z,9.42
2019-02-15T16:53:15.809Z,10.50
2019-02-15T16:55:44.911Z,10.87
2019-02-15T16:58:13.981Z,9.52
2019-02-15T17:00:42.816Z,11.80
2019-02-15T17:03:11.940Z,10.15
2019-02-15T17:05:40.708Z,8.12
2019-02-15T17:08:09.757Z,6.34
2019-02-15T17:10:38.855Z,5.51
2019-02-15T17:13:07.545Z,4.96
2019-02-15T17:15:37.246Z,4.30
2019-02-15T17:18:06.763Z,3.89
2019-02-15T17:20:35.838Z,3.44
2019-02-15T17:23:04.805Z,3.14
2019-02-15T17:25:34.106Z,2.95
2019-02-15T17:28:03.489Z,2.97
2019-02-15T17:30:34.203Z,2.98
2019-02-15T17:33:03.803Z,3.03
2019-02-15T17:35:32.802Z,3.03
2019-02-15T17:38:02.115Z,2.86
2019-02-15T17:40:31.268Z,2.81
2019-02-15T17:43:01.774Z,2.66
2019-02-15T17:45:31.007Z,2.60
2019-02-15T17:47:59.983Z,2.49
2019-02-15T17:50:29.343Z,2.40
2019-02-15T17:52:58.261Z,2.40
2019-02-15T17:55:27.377Z,2.24
2019-02-15T17:57:56.469Z,2.17
2019-02-15T18:00:26.306Z,2.16
2019-02-15T18:02:55.483Z,2.02
2019-02-15T18:05:24.688Z,2.08
2019-02-15T18:07:54.119Z,2.02
2019-02-15T18:10:23.286Z,2.13
2019-02-15T18:12:52.483Z,2.00
2019-02-15T18:15:21.781Z,2.04
2019-02-15T18:17:51.039Z,2.08
2019-02-15T18:20:21.443Z,2.23
2019-02-15T18:22:50.317Z,2.26
2019-02-15T18:25:19.699Z,2.12
2019-02-15T18:27:48.560Z,2.08
2019-02-15T18:30:18.164Z,2.04
2019-02-15T18:32:47.731Z,2.01
2019-02-15T18:35:16.811Z,1.93
2019-02-15T18:37:46.328Z,1.98
2019-02-15T18:40:15.169Z,1.89
2019-02-15T18:42:44.497Z,1.90
2019-02-15T18:45:13.728Z,1.94
2019-02-15T18:47:42.699Z,1.94
2019-02-15T18:50:12.421Z,1.89
2019-02-15T18:52:41.507Z,1.97
2019-02-15T18:55:11.222Z,1.99
2019-02-15T18:57:40.717Z,1.94
2019-02-15T19:00:11.332Z,1.85
2019-02-15T19:02:41.029Z,1.84
2019-02-15T19:05:11.369Z,1.87
2019-02-15T19:07:40.566Z,1.89
2019-02-15T19:10:11.558Z,1.87
2019-02-15T19:12:40.569Z,1.73
2019-02-15T19:15:10.531Z,1.82
2019-02-15T19:17:39.576Z,1.90
2019-02-15T19:20:09.768Z,1.92
2019-02-15T19:22:39.079Z,1.85
2019-02-15T19:25:09.687Z,1.78
2019-02-15T19:27:39.732Z,1.79
2019-02-15T19:30:11.088Z,1.76
2019-02-15T19:32:40.134Z,1.79
2019-02-15T19:35:09.314Z,1.84
2019-02-15T19:37:39.458Z,1.75
2019-02-15T19:40:10.477Z,1.74
2019-02-15T19:42:40.575Z,1.76
2019-02-15T19:45:10.486Z,1.73
2019-02-15T19:47:39.524Z,1.73
2019-02-15T19:50:10.748Z,1.73
2019-02-15T19:52:40.406Z,1.63
2019-02-15T19:55:09.944Z,1.48
2019-02-15T19:57:39.813Z,1.64
2019-02-15T20:00:12.853Z,1.64
2019-02-15T20:02:42.847Z,1.67
2019-02-15T20:05:11.928Z,1.66
2019-02-15T20:07:40.994Z,1.79
2019-02-15T20:10:12.429Z,1.71
2019-02-15T20:12:41.826Z,1.77
2019-02-15T20:15:12.062Z,1.73
2019-02-15T20:17:41.075Z,1.61
2019-02-15T20:20:11.660Z,1.55
2019-02-15T20:22:40.731Z,1.57
2019-02-15T20:25:10.558Z,1.65
2019-02-15T20:27:39.583Z,1.64
2019-02-15T20:30:11.131Z,1.56
2019-02-15T20:32:40.065Z,1.55
2019-02-15T20:35:10.410Z,1.52
2019-02-15T20:37:39.380Z,1.54
2019-02-15T20:40:09.811Z,1.41
2019-02-15T20:42:39.007Z,1.47
2019-02-15T20:45:11.671Z,1.59
2019-02-15T20:47:40.567Z,1.68
2019-02-15T20:50:10.122Z,1.66
2019-02-15T20:52:39.200Z,1.63
2019-02-15T20:55:09.684Z,1.68
2019-02-15T20:57:38.965Z,1.64
2019-02-15T21:00:10.142Z,1.66
2019-02-15T21:02:39.019Z,1.53
2019-02-15T21:05:09.010Z,1.43
2019-02-15T21:07:37.999Z,1.47
2019-02-15T21:10:08.263Z,1.48
2019-02-15T21:12:39.551Z,1.47
2019-02-15T21:15:07.035Z,1.42
2019-02-15T21:17:36.015Z,1.41
2019-02-15T21:20:07.981Z,1.38
2019-02-15T21:22:34.669Z,1.36
2019-02-15T21:25:04.363Z,1.22
2019-02-15T21:27:33.783Z,1.39
2019-02-15T21:30:02.743Z,1.36
2019-02-15T21:32:32.490Z,1.35
2019-02-15T21:35:01.380Z,1.33
2019-02-15T21:37:30.508Z,1.32
2019-02-15T21:39:59.983Z,1.29
2019-02-15T21:42:29.091Z,1.25
2019-02-15T21:44:58.701Z,1.10
2019-02-15T21:47:27.822Z,1.17
2019-02-15T21:49:56.982Z,1.06
2019-02-15T21:52:26.403Z,1.05
2019-02-15T21:54:55.439Z,0.93
2019-02-15T21:57:24.507Z,0.86
2019-02-15T21:59:53.467Z,0.71
2019-02-15T22:02:23.188Z,0.79
2019-02-15T22:04:52.043Z,0.62
2019-02-15T22:07:21.556Z,0.77
2019-02-15T22:09:50.612Z,0.67
2019-02-15T22:12:19.669Z,0.78
2019-02-15T22:14:48.984Z,0.66
2019-02-15T22:17:18.369Z,0.76
2019-02-15T22:19:47.284Z,0.78
2019-02-15T22:22:16.579Z,0.93
2019-02-15T22:24:45.700Z,0.91
2019-02-15T22:27:15.150Z,0.85
2019-02-15T22:29:44.191Z,0.89
2019-02-15T22:32:13.220Z,1.03
2019-02-15T22:34:42.164Z,1.03
2019-02-15T22:37:11.256Z,1.22
2019-02-15T22:39:40.394Z,1.21
2019-02-15T22:42:09.947Z,1.18
2019-02-15T22:44:39.144Z,1.13
2019-02-15T22:47:08.396Z,1.10
2019-02-15T22:49:43.305Z,1.14
2019-02-15T22:52:07.382Z,1.07
2019-02-15T22:54:36.515Z,0.96
2019-02-15T22:57:05.343Z,1.05
2019-02-15T22:59:35.489Z,0.98
2019-02-15T23:02:04.522Z,0.89
2019-02-15T23:04:33.138Z,0.99
2019-02-15T23:07:02.289Z,1.01
2019-02-15T23:09:31.276Z,0.83
2019-02-15T23:12:00.503Z,0.79
2019-02-15T23:14:29.291Z,0.85
2019-02-15T23:16:58.112Z,0.80
2019-02-15T23:19:27.107Z,0.85
2019-02-15T23:21:55.858Z,0.77
2019-02-15T23:24:25.281Z,0.86
2019-02-15T23:26:54.292Z,0.89
2019-02-15T23:29:23.456Z,1.00
2019-02-15T23:31:52.385Z,1.04
2019-02-15T23:34:21.179Z,1.09
2019-02-15T23:36:50.275Z,1.10
2019-02-15T23:39:19.858Z,1.06
2019-02-15T23:41:48.748Z,1.03
2019-02-15T23:44:17.654Z,0.93
2019-02-15T23:46:47.504Z,0.91
2019-02-15T23:49:17.387Z,0.96
2019-02-15T23:51:46.295Z,0.96
2019-02-15T23:54:15.305Z,0.96
2019-02-15T23:56:44.483Z,0.94
2019-02-15T23:59:14.305Z,0.79
